Time;durP1;ratioP1;P1;durP2;ratioP2;P2;SDS_P1;SDS_P2;PMS_P1;PMS_P2;Temp;Humidity;BMP_temperature;BMP_pressure;BME280_temperature;BME280_humidity;BME280_pressure;Samples;Min_cycle;Max_cycle;Signal;HPM_P1;HPM_P2
2021/08/28 00:00:36;;;;;;;3.43;3.13;;;13.80;99.90;;;;;;6264796;22;20261;-86
2021/08/28 00:03:02;;;;;;;3.83;3.37;;;13.80;99.90;;;;;;6265728;22;20456;-86
2021/08/28 00:05:28;;;;;;;3.43;3.10;;;13.70;99.90;;;;;;6264067;22;20321;-86
2021/08/28 00:07:55;;;;;;;5.47;3.30;;;13.70;99.90;;;;;;6240222;22;20237;-86
2021/08/28 00:10:22;;;;;;;4.87;3.57;;;13.80;99.90;;;;;;6239773;22;20166;-85
2021/08/28 00:12:48;;;;;;;3.60;3.30;;;13.80;99.90;;;;;;6264790;22;20856;-85
2021/08/28 00:15:13;;;;;;;4.50;4.17;;;13.80;99.90;;;;;;6239831;22;20415;-85
2021/08/28 00:17:40;;;;;;;4.90;4.40;;;13.80;99.90;;;;;;6265360;22;20461;-85
2021/08/28 00:20:09;;;;;;;5.50;5.00;;;13.70;99.90;;;;;;6262366;22;20220;-86
2021/08/28 00:22:35;;;;;;;6.17;5.67;;;13.60;99.90;;;;;;6211238;23;20400;-85
2021/08/28 00:25:01;;;;;;;6.00;5.50;;;13.60;99.90;;;;;;6210110;23;20488;-85
2021/08/28 00:27:26;;;;;;;6.13;5.63;;;13.60;99.90;;;;;;6208721;23;20394;-85
2021/08/28 00:29:52;;;;;;;6.43;5.90;;;13.60;99.90;;;;;;6208589;23;20159;-86
2021/08/28 00:32:18;;;;;;;7.50;6.00;;;13.70;99.90;;;;;;6209531;23;20167;-86
2021/08/28 00:34:43;;;;;;;6.67;6.17;;;13.70;99.90;;;;;;6209435;23;20166;-85
2021/08/28 00:37:09;;;;;;;6.83;6.27;;;13.60;99.90;;;;;;6208910;23;20174;-85
2021/08/28 00:39:35;;;;;;;6.57;5.97;;;13.60;99.90;;;;;;6208187;23;20167;-85
2021/08/28 00:42:00;;;;;;;7.03;6.27;;;13.60;99.90;;;;;;6209663;23;20440;-85
2021/08/28 00:44:26;;;;;;;6.10;5.50;;;13.60;99.90;;;;;;6208705;23;20190;-85
2021/08/28 00:46:56;;;;;;;6.03;5.43;;;13.60;99.90;;;;;;6208852;23;20234;-86
2021/08/28 00:49:22;;;;;;;5.87;5.37;;;13.60;99.90;;;;;;6208797;23;21453;-86
2021/08/28 00:51:48;;;;;;;7.23;6.03;;;13.60;99.90;;;;;;6208859;23;20448;-86
2021/08/28 00:54:13;;;;;;;7.33;6.13;;;13.60;99.90;;;;;;6209728;23;20386;-86
2021/08/28 00:56:42;;;;;;;5.30;4.80;;;13.60;99.90;;;;;;6208656;23;20165;-86
2021/08/28 00:59:08;;;;;;;6.07;5.50;;;13.60;99.90;;;;;;6209700;23;20163;-86
2021/08/28 01:01:42;;;;;;;6.80;5.77;;;13.60;99.90;;;;;;6208888;23;20781;-86
2021/08/28 01:04:14;;;;;;;6.67;6.07;;;13.60;99.90;;;;;;6208310;23;20236;-86
2021/08/28 01:07:01;;;;;;;6.20;5.60;;;13.60;99.90;;;;;;6209152;23;20451;-86
2021/08/28 01:09:37;;;;;;;7.13;5.70;;;13.60;99.90;;;;;;6208893;23;20408;-86
2021/08/28 01:12:08;;;;;;;6.77;6.17;;;13.50;99.90;;;;;;6209866;23;20484;-86
2021/08/28 01:14:38;;;;;;;6.80;6.20;;;13.60;99.90;;;;;;6208754;23;20472;-85
2021/08/28 01:17:07;;;;;;;6.40;5.70;;;13.60;99.90;;;;;;6209490;23;20837;-85
2021/08/28 01:19:36;;;;;;;6.53;5.83;;;13.60;99.90;;;;;;6208856;23;20393;-85
2021/08/28 01:22:05;;;;;;;5.97;5.47;;;13.50;99.90;;;;;;6233797;22;20428;-85
2021/08/28 01:24:31;;;;;;;6.20;5.40;;;13.40;99.90;;;;;;6239071;22;20545;-85
2021/08/28 01:27:09;;;;;;;6.70;5.80;;;13.40;99.90;;;;;;6239954;22;20393;-85
2021/08/28 01:29:37;;;;;;;6.53;5.83;;;13.40;99.90;;;;;;6263663;22;20400;-85
2021/08/28 01:32:04;;;;;;;7.13;5.77;;;13.40;99.90;;;;;;6238924;22;20450;-85
2021/08/28 01:34:31;;;;;;;6.20;5.60;;;13.40;99.90;;;;;;6239415;22;20505;-85
2021/08/28 01:36:58;;;;;;;6.20;5.43;;;13.40;99.90;;;;;;6264280;22;20389;-86
2021/08/28 01:39:24;;;;;;;6.23;5.63;;;13.40;99.90;;;;;;6237569;22;20381;-86
2021/08/28 01:41:56;;;;;;;7.70;5.37;;;13.40;99.90;;;;;;6264236;22;20454;-86
2021/08/28 01:44:23;;;;;;;6.70;5.70;;;13.50;99.90;;;;;;6237233;22;20841;-86
2021/08/28 01:46:50;;;;;;;8.10;6.30;;;13.40;99.90;;;;;;6265391;22;20381;-85
2021/08/28 01:49:16;;;;;;;7.27;5.43;;;13.40;99.90;;;;;;6265576;22;20373;-85
2021/08/28 01:51:43;;;;;;;6.07;5.47;;;13.40;99.90;;;;;;6237530;22;20472;-85
2021/08/28 01:54:09;;;;;;;6.50;5.90;;;13.40;99.90;;;;;;6237472;22;20400;-85
2021/08/28 01:56:36;;;;;;;6.40;5.43;;;13.40;99.90;;;;;;6263120;22;20405;-85
2021/08/28 01:59:02;;;;;;;6.27;5.77;;;13.40;99.90;;;;;;6265669;22;20983;-85
2021/08/28 02:01:28;;;;;;;6.10;5.07;;;13.50;99.90;;;;;;6237473;22;20245;-85
2021/08/28 02:03:54;;;;;;;6.13;5.50;;;13.50;99.90;;;;;;6263191;22;20935;-85
2021/08/28 02:06:46;;;;;;;5.87;5.37;;;13.40;99.90;;;;;;6262334;22;20768;-85
2021/08/28 02:09:32;;;;;;;6.83;6.20;;;13.50;99.90;;;;;;6263659;22;20170;-86
2021/08/28 02:12:03;;;;;;;6.93;5.30;;;13.40;99.90;;;;;;6189614;22;20424;-86
2021/08/28 02:14:50;;;;;;;6.67;5.30;;;13.40;99.90;;;;;;6238125;22;20891;-85
2021/08/28 02:17:17;;;;;;;6.70;6.07;;;13.40;99.90;;;;;;6238559;22;20384;-85
2021/08/28 02:19:43;;;;;;;7.63;6.50;;;13.40;99.90;;;;;;6238146;22;20435;-85
2021/08/28 02:22:16;;;;;;;6.40;5.80;;;13.40;99.90;;;;;;6238181;22;20397;-85
2021/08/28 02:24:46;;;;;;;6.73;6.00;;;13.40;99.90;;;;;;6264291;22;20795;-85
2021/08/28 02:27:22;;;;;;;6.83;6.23;;;13.40;99.90;;;;;;6264917;22;20389;-85
2021/08/28 02:29:54;;;;;;;6.03;5.43;;;13.50;99.90;;;;;;6263316;22;20454;-85
2021/08/28 02:32:21;;;;;;;7.60;5.83;;;13.50;99.90;;;;;;6263371;22;20480;-85
2021/08/28 02:34:50;;;;;;;6.33;5.73;;;13.50;99.90;;;;;;6263877;22;20720;-85
2021/08/28 02:37:17;;;;;;;6.67;6.03;;;13.40;99.90;;;;;;6238227;22;20393;-86
2021/08/28 02:39:45;;;;;;;9.40;6.73;;;13.40;99.90;;;;;;6238122;22;20767;-86
2021/08/28 02:42:13;;;;;;;6.27;5.67;;;13.40;99.90;;;;;;6265241;22;20870;-86
2021/08/28 02:44:48;;;;;;;6.73;6.03;;;13.50;99.90;;;;;;6264521;22;20441;-85
2021/08/28 02:47:15;;;;;;;6.80;6.30;;;13.50;99.90;;;;;;6263452;22;20393;-84
2021/08/28 02:49:42;;;;;;;6.40;5.80;;;13.40;99.90;;;;;;6263761;22;20400;-85
2021/08/28 02:52:11;;;;;;;7.90;6.80;;;13.40;99.90;;;;;;6263655;22;20428;-85
2021/08/28 02:54:39;;;;;;;7.67;6.37;;;13.40;99.90;;;;;;6263069;22;20416;-85
2021/08/28 02:57:06;;;;;;;6.90;6.20;;;13.40;99.90;;;;;;6263787;22;20385;-85
2021/08/28 02:59:33;;;;;;;7.73;6.63;;;13.30;99.90;;;;;;6263839;22;20926;-85
2021/08/28 03:01:59;;;;;;;9.60;7.87;;;13.30;99.90;;;;;;6288911;22;20396;-85
2021/08/28 03:04:26;;;;;;;7.77;6.30;;;13.30;99.90;;;;;;6264427;22;20440;-85
2021/08/28 03:06:52;;;;;;;8.70;7.70;;;13.30;99.90;;;;;;6265235;22;20165;-85
2021/08/28 03:09:18;;;;;;;9.83;6.83;;;13.30;99.90;;;;;;6263293;22;20389;-85
2021/08/28 03:11:47;;;;;;;7.23;6.63;;;13.30;99.90;;;;;;6263624;22;20705;-85
2021/08/28 03:14:14;;;;;;;8.23;7.43;;;13.40;99.90;;;;;;6263691;22;20403;-85
2021/08/28 03:16:45;;;;;;;8.30;7.00;;;13.30;99.90;;;;;;6263807;22;20464;-85
2021/08/28 03:19:14;;;;;;;8.60;7.80;;;13.30;99.90;;;;;;6263508;22;20396;-85
2021/08/28 03:21:40;;;;;;;8.37;7.57;;;13.40;99.90;;;;;;6263192;22;20886;-85
2021/08/28 03:24:07;;;;;;;8.50;7.60;;;13.30;99.90;;;;;;6261486;22;20527;-84
2021/08/28 03:26:34;;;;;;;9.93;8.80;;;13.40;99.90;;;;;;6262717;22;20390;-84
2021/08/28 03:29:02;;;;;;;10.47;8.27;;;13.40;99.90;;;;;;6262556;22;20449;-85
2021/08/28 03:31:28;;;;;;;9.57;8.67;;;13.40;99.90;;;;;;6262220;22;20389;-84
2021/08/28 03:33:57;;;;;;;9.53;8.50;;;13.30;99.90;;;;;;6263200;22;20411;-85
2021/08/28 03:36:23;;;;;;;10.20;9.20;;;13.30;99.90;;;;;;6263151;22;20391;-85
2021/08/28 03:38:50;;;;;;;10.97;9.90;;;13.30;99.90;;;;;;6263209;22;20716;-85
2021/08/28 03:41:17;;;;;;;13.20;10.60;;;13.30;99.90;;;;;;6263047;22;20381;-84
2021/08/28 03:43:46;;;;;;;11.77;10.50;;;13.30;99.90;;;;;;6238006;22;20440;-84
2021/08/28 03:46:14;;;;;;;10.90;9.80;;;13.30;99.90;;;;;;6236299;22;20393;-84
2021/08/28 03:48:40;;;;;;;13.23;10.60;;;13.30;99.90;;;;;;6262534;22;20760;-84
2021/08/28 03:51:07;;;;;;;12.37;10.70;;;13.30;99.90;;;;;;6237883;22;20428;-84
2021/08/28 03:53:33;;;;;;;12.80;11.50;;;13.40;99.90;;;;;;6238123;22;20401;-84
2021/08/28 03:55:59;;;;;;;13.27;11.87;;;13.40;99.90;;;;;;6236795;22;20395;-84
2021/08/28 03:58:26;;;;;;;13.47;11.90;;;13.40;99.90;;;;;;6238018;22;20551;-84
2021/08/28 04:00:52;;;;;;;19.20;12.30;;;13.30;99.90;;;;;;6237397;22;20397;-85
2021/08/28 04:03:18;;;;;;;13.30;11.87;;;13.30;99.90;;;;;;6236739;22;20436;-86
2021/08/28 04:05:44;;;;;;;16.20;12.53;;;13.30;99.90;;;;;;6238188;22;20412;-85
2021/08/28 04:08:10;;;;;;;14.80;12.07;;;13.30;99.90;;;;;;6266444;22;20381;-86
2021/08/28 04:10:36;;;;;;;16.07;13.57;;;13.20;99.90;;;;;;6235480;22;20232;-85
2021/08/28 04:13:02;;;;;;;15.67;13.93;;;13.30;99.90;;;;;;6236966;22;20389;-86
2021/08/28 04:15:27;;;;;;;17.47;14.30;;;13.20;99.90;;;;;;6238005;22;20159;-85
2021/08/28 04:17:54;;;;;;;15.70;13.07;;;13.30;99.90;;;;;;6237413;22;20572;-85
2021/08/28 04:20:20;;;;;;;16.50;13.33;;;13.30;99.90;;;;;;6228352;22;20178;-85
2021/08/28 04:22:46;;;;;;;15.33;13.13;;;13.20;99.90;;;;;;6206859;23;20401;-85
2021/08/28 04:25:12;;;;;;;15.40;13.37;;;13.20;99.90;;;;;;6207918;23;20178;-86
2021/08/28 04:27:38;;;;;;;17.73;14.10;;;13.20;99.90;;;;;;6205650;23;20602;-86
2021/08/28 04:30:05;;;;;;;14.77;13.13;;;13.30;99.90;;;;;;6205906;23;20925;-86
2021/08/28 04:32:31;;;;;;;16.53;13.60;;;13.20;99.90;;;;;;6206517;23;20402;-86
2021/08/28 04:34:57;;;;;;;18.40;14.90;;;13.30;99.90;;;;;;6208463;23;20402;-86
2021/08/28 04:37:23;;;;;;;17.97;13.87;;;13.30;99.90;;;;;;6206127;23;20163;-86
2021/08/28 04:39:48;;;;;;;17.50;15.00;;;13.30;99.90;;;;;;6208374;23;20493;-85
2021/08/28 04:42:14;;;;;;;17.97;14.07;;;13.30;99.90;;;;;;6208572;23;20159;-85
2021/08/28 04:44:40;;;;;;;16.33;14.47;;;13.20;99.90;;;;;;6207368;23;20194;-85
2021/08/28 04:47:05;;;;;;;17.87;13.80;;;13.20;99.90;;;;;;6209525;23;20409;-86
2021/08/28 04:49:31;;;;;;;17.83;15.10;;;13.20;99.90;;;;;;6208778;23;20174;-86
2021/08/28 04:51:58;;;;;;;17.00;14.07;;;13.20;99.90;;;;;;6208725;23;20167;-86
2021/08/28 04:54:24;;;;;;;19.10;15.20;;;13.30;99.90;;;;;;6212674;23;20629;-86
2021/08/28 04:56:50;;;;;;;19.83;15.77;;;13.30;99.90;;;;;;6234882;23;20389;-86
2021/08/28 04:59:16;;;;;;;19.70;15.73;;;13.30;99.90;;;;;;6232300;23;20382;-85
2021/08/28 05:01:41;;;;;;;17.90;15.00;;;13.30;99.90;;;;;;6208107;23;20166;-85
2021/08/28 05:04:07;;;;;;;17.23;14.47;;;13.30;99.90;;;;;;6209285;23;20660;-85
2021/08/28 05:06:33;;;;;;;18.40;14.27;;;13.30;99.90;;;;;;6208282;23;20270;-85
2021/08/28 05:08:59;;;;;;;18.03;15.60;;;13.20;99.90;;;;;;6207929;23;20414;-85
2021/08/28 05:11:24;;;;;;;18.80;14.90;;;13.20;99.90;;;;;;6208754;23;20258;-85
2021/08/28 05:13:50;;;;;;;20.00;15.73;;;13.20;99.90;;;;;;6209670;23;20300;-85
2021/08/28 05:16:16;;;;;;;20.27;15.03;;;13.20;99.90;;;;;;6210627;23;20170;-85
2021/08/28 05:18:41;;;;;;;23.23;17.80;;;13.20;99.90;;;;;;6206754;23;20477;-85
2021/08/28 05:21:07;;;;;;;24.30;15.70;;;13.20;99.90;;;;;;6209381;22;20600;-85
2021/08/28 05:23:33;;;;;;;19.90;16.43;;;13.20;99.90;;;;;;6208881;23;20743;-85
2021/08/28 05:25:58;;;;;;;20.97;15.50;;;13.20;99.90;;;;;;6208682;23;20169;-85
2021/08/28 05:28:24;;;;;;;20.67;16.37;;;13.30;99.90;;;;;;6207801;23;20621;-85
2021/08/28 05:30:50;;;;;;;25.23;17.27;;;13.30;99.90;;;;;;6209243;23;20562;-85
2021/08/28 05:33:16;;;;;;;19.70;15.77;;;13.30;99.90;;;;;;6209457;23;20163;-85
2021/08/28 05:35:42;;;;;;;21.33;17.20;;;13.30;99.90;;;;;;6207769;23;20178;-85
2021/08/28 05:38:08;;;;;;;21.33;17.23;;;13.40;99.90;;;;;;6209458;23;20251;-86
2021/08/28 05:40:34;;;;;;;19.43;15.80;;;13.40;99.90;;;;;;6207223;23;20409;-87
2021/08/28 05:42:59;;;;;;;21.73;16.63;;;13.40;99.90;;;;;;6204758;23;20393;-85
2021/08/28 05:45:25;;;;;;;19.33;16.13;;;13.30;99.90;;;;;;6197097;23;20483;-85
2021/08/28 05:47:52;;;;;;;18.77;15.33;;;13.40;99.90;;;;;;6203668;23;20163;-87
2021/08/28 05:50:18;;;;;;;19.80;16.33;;;13.40;99.90;;;;;;6200464;23;20228;-87
2021/08/28 05:52:44;;;;;;;18.53;15.73;;;13.40;99.90;;;;;;6207268;23;20394;-86
2021/08/28 05:55:13;;;;;;;19.60;16.00;;;13.50;99.90;;;;;;6201622;23;20394;-87
2021/08/28 05:57:39;;;;;;;19.93;15.60;;;13.40;99.90;;;;;;6207975;23;20694;-86
2021/08/28 06:00:06;;;;;;;20.07;15.50;;;13.50;99.90;;;;;;6206458;23;20397;-85
2021/08/28 06:02:32;;;;;;;23.13;17.20;;;13.40;99.90;;;;;;6207877;23;20390;-86
2021/08/28 06:04:57;;;;;;;19.80;17.20;;;13.60;99.90;;;;;;6202501;23;20448;-86
2021/08/28 06:07:23;;;;;;;17.40;14.80;;;13.70;99.90;;;;;;6206160;23;20397;-86
2021/08/28 06:09:49;;;;;;;16.87;14.73;;;13.70;99.90;;;;;;6205591;23;20190;-85
2021/08/28 06:12:15;;;;;;;17.83;15.93;;;13.60;99.90;;;;;;6206286;23;20159;-87
2021/08/28 06:14:41;;;;;;;17.93;16.00;;;13.70;99.90;;;;;;6207828;23;20405;-86
2021/08/28 06:17:06;;;;;;;18.23;16.20;;;13.80;99.90;;;;;;6206028;23;20167;-86
2021/08/28 06:19:32;;;;;;;20.00;15.30;;;13.70;99.90;;;;;;6205130;23;20241;-85
2021/08/28 06:21:57;;;;;;;19.20;15.40;;;13.80;99.90;;;;;;6206894;23;20265;-86
2021/08/28 06:24:23;;;;;;;16.77;14.03;;;13.70;99.90;;;;;;6206818;23;20626;-85
2021/08/28 06:26:49;;;;;;;20.90;15.10;;;13.70;99.90;;;;;;6203258;23;20221;-86
2021/08/28 06:29:14;;;;;;;17.70;15.47;;;13.50;99.90;;;;;;6206793;23;20217;-85
2021/08/28 06:31:40;;;;;;;19.00;15.97;;;13.50;99.90;;;;;;6206171;23;20165;-85
2021/08/28 06:34:06;;;;;;;20.60;15.47;;;13.70;99.90;;;;;;6206335;23;20672;-85
2021/08/28 06:36:31;;;;;;;17.57;15.53;;;13.70;99.90;;;;;;6206927;23;20625;-84
2021/08/28 06:38:57;;;;;;;16.10;14.03;;;13.80;99.90;;;;;;6206243;23;20159;-85
2021/08/28 06:41:23;;;;;;;15.63;13.83;;;13.80;99.90;;;;;;6196207;23;20428;-85
2021/08/28 06:43:49;;;;;;;16.13;14.03;;;13.90;99.90;;;;;;6199750;23;20964;-86
2021/08/28 06:46:14;;;;;;;16.63;14.93;;;14.00;99.90;;;;;;6201164;23;20586;-84
2021/08/28 06:48:40;;;;;;;18.00;13.60;;;14.10;99.90;;;;;;6206623;23;20213;-85
2021/08/28 06:51:06;;;;;;;15.20;12.53;;;14.20;99.90;;;;;;6203103;23;20257;-84
2021/08/28 06:53:32;;;;;;;17.30;13.47;;;14.00;99.90;;;;;;6206190;23;20174;-84
2021/08/28 06:55:57;;;;;;;13.77;12.37;;;13.90;99.90;;;;;;6206893;23;20166;-85
2021/08/28 06:58:23;;;;;;;13.77;12.37;;;13.90;99.90;;;;;;6206579;23;20247;-85
2021/08/28 07:00:48;;;;;;;12.97;11.67;;;14.10;99.90;;;;;;6206750;23;20159;-85
2021/08/28 07:03:14;;;;;;;12.10;10.90;;;14.10;99.90;;;;;;6198667;23;20182;-85
2021/08/28 07:05:40;;;;;;;12.10;10.83;;;14.10;99.90;;;;;;6205566;23;20566;-85
2021/08/28 07:08:05;;;;;;;12.80;11.40;;;14.20;99.90;;;;;;6205489;23;20593;-83
2021/08/28 07:10:31;;;;;;;12.30;11.10;;;14.40;99.90;;;;;;6205703;23;20495;-84
2021/08/28 07:12:57;;;;;;;10.83;9.83;;;14.50;99.90;;;;;;6205797;23;20166;-84
2021/08/28 07:15:22;;;;;;;10.90;9.90;;;14.40;99.90;;;;;;6230515;23;20427;-85
2021/08/28 07:17:48;;;;;;;10.23;9.23;;;14.30;99.90;;;;;;6230868;23;20167;-84
2021/08/28 07:20:14;;;;;;;11.00;9.17;;;14.40;99.90;;;;;;6231253;23;20400;-84
2021/08/28 07:22:40;;;;;;;13.03;10.17;;;14.30;99.90;;;;;;6203956;23;20166;-85
2021/08/28 07:25:07;;;;;;;10.30;9.30;;;14.30;99.90;;;;;;6203908;23;20441;-84
2021/08/28 07:27:32;;;;;;;8.27;7.47;;;14.30;99.90;;;;;;6205683;23;20390;-84
2021/08/28 07:29:58;;;;;;;10.37;8.87;;;14.40;99.90;;;;;;6205572;23;20405;-84
2021/08/28 07:32:24;;;;;;;8.90;8.10;;;14.60;99.90;;;;;;6205272;23;20545;-84
2021/08/28 07:34:54;;;;;;;9.07;8.20;;;14.50;99.90;;;;;;6207209;23;20856;-85
2021/08/28 07:37:20;;;;;;;9.50;8.50;;;14.60;99.90;;;;;;6204519;23;20489;-84
2021/08/28 07:39:46;;;;;;;8.83;7.83;;;15.00;99.90;;;;;;6204887;23;20398;-85
2021/08/28 07:42:12;;;;;;;8.70;7.80;;;15.20;99.90;;;;;;6205041;23;20723;-86
2021/08/28 07:44:37;;;;;;;6.47;5.87;;;15.60;99.90;;;;;;6206178;23;20199;-87
2021/08/28 07:47:03;;;;;;;6.13;5.63;;;15.80;99.90;;;;;;6206730;23;20163;-86
2021/08/28 07:49:29;;;;;;;6.23;5.60;;;15.90;99.90;;;;;;6205253;23;20167;-86
2021/08/28 07:51:54;;;;;;;5.80;5.40;;;16.10;99.90;;;;;;6205098;23;20657;-85
2021/08/28 07:54:20;;;;;;;5.90;5.40;;;16.10;99.90;;;;;;6204832;23;20594;-86
2021/08/28 07:56:46;;;;;;;6.23;5.73;;;16.40;99.90;;;;;;6207712;23;20529;-86
2021/08/28 07:59:12;;;;;;;6.00;5.40;;;16.50;99.90;;;;;;6207719;23;20170;-87
2021/08/28 08:01:37;;;;;;;5.60;5.10;;;16.70;99.90;;;;;;6205791;23;20601;-87
2021/08/28 08:04:03;;;;;;;6.00;5.50;;;17.00;99.90;;;;;;6205720;23;20195;-87
2021/08/28 08:06:29;;;;;;;8.87;6.10;;;16.90;99.90;;;;;;6200934;23;20159;-86
2021/08/28 08:08:55;;;;;;;6.17;5.50;;;16.50;99.90;;;;;;6204472;23;20190;-87
2021/08/28 08:11:21;;;;;;;5.93;5.40;;;16.30;99.90;;;;;;6206208;23;20151;-86
2021/08/28 08:13:46;;;;;;;5.87;5.43;;;16.20;99.90;;;;;;6206385;23;20406;-86
2021/08/28 08:16:13;;;;;;;6.40;5.83;;;15.90;99.90;;;;;;6209394;23;20159;-87
2021/08/28 08:18:39;;;;;;;6.93;6.43;;;15.80;99.90;;;;;;6206614;23;20171;-86
2021/08/28 08:21:05;;;;;;;6.73;6.13;;;15.90;99.90;;;;;;6220363;22;20404;-88
2021/08/28 08:23:31;;;;;;;6.70;6.10;;;16.50;99.90;;;;;;6263723;22;20450;-87
2021/08/28 08:25:56;;;;;;;5.13;4.73;;;17.20;99.90;;;;;;6264799;22;20679;-87
2021/08/28 08:28:22;;;;;;;6.50;5.90;;;17.50;99.90;;;;;;6264374;22;20409;-87
2021/08/28 08:30:48;;;;;;;4.53;4.10;;;17.50;99.90;;;;;;6263353;22;20177;-87
2021/08/28 08:33:13;;;;;;;5.80;5.30;;;17.40;99.90;;;;;;6264117;22;20162;-87
2021/08/28 08:35:39;;;;;;;7.07;5.50;;;16.80;99.90;;;;;;6264054;22;20215;-88
2021/08/28 08:38:05;;;;;;;4.50;4.10;;;17.00;99.90;;;;;;6263846;22;20493;-88
2021/08/28 08:40:31;;;;;;;4.57;4.17;;;17.30;99.90;;;;;;6237934;22;20173;-87
2021/08/28 08:43:02;;;;;;;5.00;4.10;;;17.60;99.90;;;;;;6262879;22;20500;-88
2021/08/28 08:45:28;;;;;;;4.83;4.43;;;17.40;99.90;;;;;;6238432;22;20162;-86
2021/08/28 08:47:54;;;;;;;11.63;7.17;;;16.90;99.90;;;;;;6262636;22;20428;-87
2021/08/28 08:50:22;;;;;;;5.33;4.83;;;16.50;99.90;;;;;;6228696;22;20609;-87
2021/08/28 08:52:58;;;;;;;4.00;3.70;;;16.30;99.90;;;;;;6239742;22;20393;-87
2021/08/28 08:55:24;;;;;;;3.70;3.40;;;16.60;99.90;;;;;;6238287;22;20393;-89
2021/08/28 08:57:51;;;;;;;3.60;3.40;;;16.80;99.90;;;;;;6264571;22;20416;-88
2021/08/28 09:00:17;;;;;;;4.43;3.53;;;16.70;99.90;;;;;;6239374;22;20476;-90
2021/08/28 09:02:43;;;;;;;4.80;3.37;;;17.00;99.90;;;;;;6240634;22;20385;-88
2021/08/28 09:05:09;;;;;;;3.90;3.60;;;17.10;99.90;;;;;;6268508;22;20451;-90
2021/08/28 09:07:35;;;;;;;4.17;3.77;;;17.50;99.90;;;;;;6238750;22;20253;-89
2021/08/28 09:10:01;;;;;;;4.13;3.80;;;16.90;99.90;;;;;;6240147;22;20405;-89
2021/08/28 09:12:41;;;;;;;6.00;4.43;;;16.20;99.90;;;;;;6264049;22;20889;-88
2021/08/28 09:15:12;;;;;;;5.17;4.67;;;16.00;99.90;;;;;;6238364;22;20162;-90
2021/08/28 09:17:39;;;;;;;4.13;3.83;;;15.90;99.90;;;;;;6238144;22;20421;-89
2021/08/28 09:20:22;;;;;;;3.20;2.80;;;15.80;99.90;;;;;;6236610;22;20428;-90
2021/08/28 09:22:49;;;;;;;2.50;2.30;;;16.10;99.90;;;;;;6207593;23;20447;-90
2021/08/28 09:25:27;;;;;;;2.57;2.37;;;16.50;99.90;;;;;;6208217;23;20480;-92
2021/08/28 09:27:54;;;;;;;2.10;2.00;;;16.80;99.90;;;;;;6235613;23;20452;-91
2021/08/28 09:30:27;;;;;;;2.43;2.20;;;17.00;99.90;;;;;;6235544;23;20845;-91
2021/08/28 09:32:57;;;;;;;2.43;2.33;;;17.30;99.90;;;;;;6202523;23;20441;-92
2021/08/28 09:35:29;;;;;;;3.07;2.87;;;17.40;99.90;;;;;;6207916;23;20405;-91
2021/08/28 09:38:23;;;;;;;3.20;2.90;;;17.10;99.90;;;;;;6207838;23;20473;-92
2021/08/28 09:41:04;;;;;;;3.43;3.23;;;16.90;99.90;;;;;;6232278;23;20401;-93
2021/08/28 09:44:04;;;;;;;2.70;2.40;;;17.00;99.90;;;;;;6210246;23;20479;-91
2021/08/28 09:46:30;;;;;;;3.10;2.80;;;17.10;99.90;;;;;;6206184;23;20394;-92
2021/08/28 09:49:01;;;;;;;2.70;2.50;;;16.90;99.90;;;;;;6207996;23;20490;-91
2021/08/28 09:51:41;;;;;;;3.50;2.47;;;17.00;99.90;;;;;;6206832;23;20190;-93
2021/08/28 09:54:21;;;;;;;2.60;2.30;;;17.00;99.90;;;;;;6206734;23;20397;-91
2021/08/28 09:57:00;;;;;;;3.10;2.90;;;17.10;99.90;;;;;;6207672;23;20393;-90
2021/08/28 09:59:27;;;;;;;2.93;2.70;;;17.20;99.90;;;;;;6206590;23;20406;-90
2021/08/28 10:01:53;;;;;;;3.00;2.70;;;17.20;99.90;;;;;;6207001;23;20394;-90
2021/08/28 10:04:18;;;;;;;3.40;3.20;;;16.70;99.90;;;;;;6207992;23;20941;-90
2021/08/28 10:06:48;;;;;;;3.67;3.43;;;16.60;99.90;;;;;;6208265;23;20497;-90
2021/08/28 10:09:16;;;;;;;4.40;3.40;;;16.40;99.90;;;;;;6177307;23;20174;-91
2021/08/28 10:12:01;;;;;;;4.57;3.67;;;15.90;99.90;;;;;;6206416;23;20409;-89
2021/08/28 10:14:29;;;;;;;4.27;3.87;;;15.40;99.90;;;;;;6230595;23;20772;-90
2021/08/28 10:16:54;;;;;;;4.03;3.73;;;15.40;99.90;;;;;;6207066;23;20485;-90
2021/08/28 10:19:20;;;;;;;4.30;4.00;;;15.60;99.90;;;;;;6207594;23;20412;-91
2021/08/28 10:21:49;;;;;;;4.27;3.97;;;15.70;99.90;;;;;;6229144;22;20177;-90
2021/08/28 10:24:16;;;;;;;4.00;3.70;;;16.00;99.90;;;;;;6237051;22;20494;-90
2021/08/28 10:26:45;;;;;;;4.13;3.63;;;16.00;99.90;;;;;;6237993;22;20455;-90
2021/08/28 10:29:14;;;;;;;4.17;3.87;;;16.10;99.90;;;;;;6260973;22;20377;-90
2021/08/28 10:31:41;;;;;;;4.50;4.20;;;16.10;99.90;;;;;;6262939;22;20397;-90
2021/08/28 10:34:08;;;;;;;4.10;3.80;;;16.00;99.90;;;;;;6238492;22;20547;-89
2021/08/28 10:36:35;;;;;;;4.83;4.43;;;15.70;99.90;;;;;;6239924;22;20389;-89
2021/08/28 10:39:02;;;;;;;4.70;4.30;;;15.50;99.90;;;;;;6236018;22;20488;-88
2021/08/28 10:41:28;;;;;;;4.03;3.73;;;15.50;99.90;;;;;;6238117;22;20879;-88
2021/08/28 10:43:54;;;;;;;4.07;3.77;;;15.70;99.90;;;;;;6236646;22;20436;-89
2021/08/28 10:46:21;;;;;;;4.90;4.60;;;15.70;99.90;;;;;;6236507;22;20894;-91
2021/08/28 10:48:58;;;;;;;4.23;3.93;;;15.50;99.90;;;;;;6237060;22;20899;-89
2021/08/28 10:51:35;;;;;;;3.73;3.43;;;15.60;99.90;;;;;;6237233;22;20781;-90
2021/08/28 10:54:09;;;;;;;3.53;3.33;;;15.70;99.90;;;;;;6237776;22;20458;-91
2021/08/28 10:56:52;;;;;;;5.67;4.30;;;15.80;99.90;;;;;;6234491;22;20401;-89
2021/08/28 10:59:32;;;;;;;5.93;4.40;;;15.50;99.90;;;;;;6237479;22;20391;-90
2021/08/28 11:02:08;;;;;;;3.63;3.33;;;15.70;99.90;;;;;;6237467;22;20424;-89
2021/08/28 11:04:47;;;;;;;4.90;4.33;;;15.90;99.90;;;;;;6236322;22;20448;-90
2021/08/28 11:07:27;;;;;;;7.97;6.60;;;16.10;99.90;;;;;;6237582;22;20719;-89
2021/08/28 11:10:40;;;;;;;4.67;4.30;;;16.10;99.90;;;;;;6237969;22;20404;-90
2021/08/28 11:13:06;;;;;;;4.00;3.70;;;16.60;99.90;;;;;;6217665;22;20429;-90
2021/08/28 11:15:35;;;;;;;4.30;3.77;;;17.10;99.90;;;;;;6237066;22;20392;-92
2021/08/28 11:18:03;;;;;;;3.67;3.47;;;17.40;99.90;;;;;;6264009;22;20400;-90
2021/08/28 11:20:34;;;;;;;3.50;3.20;;;17.90;99.90;;;;;;6239850;22;20417;-93
2021/08/28 11:23:02;;;;;;;2.90;2.70;;;18.10;99.90;;;;;;6237709;22;20389;-92
2021/08/28 11:25:29;;;;;;;3.73;3.53;;;17.80;99.90;;;;;;6264673;22;20400;-93
2021/08/28 11:27:56;;;;;;;4.03;3.73;;;17.30;99.90;;;;;;6263825;22;20455;-93
2021/08/28 11:30:42;;;;;;;4.00;2.80;;;17.00;99.90;;;;;;6265155;22;20409;-96
2021/08/28 11:33:30;;;;;;;2.73;2.53;;;17.00;99.90;;;;;;6238673;22;20393;-94
2021/08/28 11:35:59;;;;;;;2.70;2.50;;;17.60;99.90;;;;;;6239419;22;20487;-95
2021/08/28 11:38:45;;;;;;;9.13;8.63;;;18.50;99.90;;;;;;6263575;22;20389;-94
2021/08/28 11:41:12;;;;;;;3.50;3.20;;;17.30;99.90;;;;;;6239117;22;20740;-93
2021/08/28 11:43:40;;;;;;;33.67;31.13;;;16.90;99.90;;;;;;6265415;22;20436;-93
2021/08/28 11:46:10;;;;;;;5.93;5.50;;;16.90;99.90;;;;;;6237944;22;20400;-93
2021/08/28 11:48:38;;;;;;;3.30;3.00;;;17.40;99.90;;;;;;6239368;22;20404;-92
2021/08/28 11:51:07;;;;;;;2.90;2.70;;;18.00;99.90;;;;;;6265774;22;20491;-93
2021/08/28 11:53:35;;;;;;;1.50;1.40;;;18.30;99.90;;;;;;6267566;22;20400;-93
2021/08/28 11:56:05;;;;;;;3.50;3.30;;;18.50;99.90;;;;;;6267899;22;20483;-92
2021/08/28 11:58:38;;;;;;;2.20;2.10;;;17.80;99.90;;;;;;6292991;22;20392;-92
2021/08/28 12:01:08;;;;;;;1.97;1.87;;;18.00;99.90;;;;;;6262057;22;20415;-91
2021/08/28 12:03:37;;;;;;;1.27;1.17;;;18.90;99.90;;;;;;6265355;22;20428;-92
2021/08/28 12:06:03;;;;;;;1.33;1.27;;;19.70;99.90;;;;;;6267577;22;20385;-93
2021/08/28 12:08:28;;;;;;;1.13;1.13;;;20.30;99.90;;;;;;6266042;22;20162;-93
2021/08/28 12:10:54;;;;;;;1.00;1.00;;;18.90;99.90;;;;;;6266044;22;20540;-93
2021/08/28 12:13:20;;;;;;;1.13;1.13;;;18.20;99.90;;;;;;6265589;22;20605;-93
2021/08/28 12:15:47;;;;;;;2.00;1.20;;;17.80;99.90;;;;;;6268087;22;20166;-92
2021/08/28 12:18:25;;;;;;;2.37;2.17;;;17.80;99.90;;;;;;6265692;22;20340;-93
2021/08/28 12:20:53;;;;;;;1.50;1.40;;;18.00;99.90;;;;;;6265991;22;20408;-92
2021/08/28 12:23:20;;;;;;;1.97;1.87;;;18.00;99.90;;;;;;6266163;22;20397;-92
2021/08/28 12:25:47;;;;;;;0.90;0.90;;;18.40;99.90;;;;;;6266301;22;20405;-93
2021/08/28 12:28:15;;;;;;;1.90;1.33;;;18.50;99.90;;;;;;6266902;22;20856;-92
2021/08/28 12:34:29;;;;;;;1.20;1.20;;;18.00;99.90;;;;;;6259922;22;20478;-92
2021/08/28 12:36:59;;;;;;;1.80;1.70;;;17.90;99.90;;;;;;6267870;22;20431;-93
2021/08/28 12:39:29;;;;;;;2.63;2.43;;;17.90;99.90;;;;;;6260915;22;20879;-92
2021/08/28 12:41:58;;;;;;;1.20;1.13;;;17.90;99.90;;;;;;6266570;22;20874;-93
2021/08/28 12:44:32;;;;;;;1.30;1.20;;;18.00;99.90;;;;;;6240593;22;20444;-93
2021/08/28 12:47:03;;;;;;;1.10;0.87;;;18.30;99.90;;;;;;6266426;22;20403;-92
2021/08/28 12:49:31;;;;;;;1.00;0.90;;;18.30;99.90;;;;;;6263208;22;20397;-93